Time;durP1;ratioP1;P1;durP2;ratioP2;P2;SDS_P1;SDS_P2;PMS_P1;PMS_P2;Temp;Humidity;BMP_temperature;BMP_pressure;BME280_temperature;BME280_humidity;BME280_pressure;Samples;Min_cycle;Max_cycle;Signal;HPM_P1;HPM_P2
2022/02/28 00:00:20;;;;;;;9.53;4.70;;;5.70;20.60;;;;;;2614557;47;20408;-76
2022/02/28 00:02:48;;;;;;;8.27;6.17;;;5.60;21.00;;;;;;2614485;47;20988;-77
2022/02/28 00:05:16;;;;;;;5.57;4.73;;;5.60;21.90;;;;;;2614691;47;20561;-78
2022/02/28 00:07:43;;;;;;;5.40;4.80;;;5.50;23.30;;;;;;2615673;47;20455;-78
2022/02/28 00:10:10;;;;;;;6.90;4.83;;;5.50;23.10;;;;;;2615149;51;20418;-77
2022/02/28 00:12:37;;;;;;;5.27;4.77;;;5.50;22.80;;;;;;2614409;54;20511;-79
2022/02/28 00:15:06;;;;;;;7.20;5.87;;;5.50;22.90;;;;;;2613821;47;20447;-77
2022/02/28 00:17:33;;;;;;;7.27;5.57;;;5.40;23.90;;;;;;2614909;39;20943;-77
2022/02/28 00:20:00;;;;;;;6.67;5.20;;;5.60;21.50;;;;;;2615827;39;20917;-76
2022/02/28 00:22:28;;;;;;;6.50;5.50;;;5.60;21.00;;;;;;2614994;54;20999;-76
2022/02/28 00:24:54;;;;;;;8.33;5.53;;;5.50;21.90;;;;;;2614630;54;20463;-77
2022/02/28 00:27:21;;;;;;;9.90;5.93;;;5.40;22.80;;;;;;2614027;54;20416;-77
2022/02/28 00:29:47;;;;;;;6.07;5.57;;;5.50;20.70;;;;;;2613891;47;20415;-77
2022/02/28 00:32:13;;;;;;;9.63;5.40;;;5.60;18.00;;;;;;2614784;54;20492;-78
2022/02/28 00:34:39;;;;;;;6.13;5.40;;;5.70;18.30;;;;;;2614946;47;20434;-78
2022/02/28 00:37:30;;;;;;;6.10;5.50;;;5.80;16.60;;;;;;2614254;47;20424;-78
2022/02/28 00:39:57;;;;;;;12.27;5.70;;;5.60;18.40;;;;;;2614576;47;20167;-78
2022/02/28 00:42:23;;;;;;;10.20;5.80;;;5.50;19.30;;;;;;2614945;47;20471;-79
2022/02/28 00:44:51;;;;;;;8.80;6.50;;;5.40;25.00;;;;;;2614083;39;20834;-78
2022/02/28 00:47:17;;;;;;;5.90;4.80;;;5.30;22.10;;;;;;2614270;54;20143;-79
2022/02/28 00:49:44;;;;;;;6.37;5.77;;;5.30;23.20;;;;;;2614411;54;20514;-78
2022/02/28 00:52:10;;;;;;;5.77;5.23;;;5.20;25.20;;;;;;2614708;54;20514;-78
2022/02/28 00:55:03;;;;;;;11.40;5.80;;;5.00;28.30;;;;;;2614244;51;20516;-78
2022/02/28 00:57:30;;;;;;;8.90;5.93;;;4.90;30.50;;;;;;2615197;39;20783;-78
2022/02/28 00:59:56;;;;;;;6.43;5.80;;;5.00;29.00;;;;;;2614412;54;20396;-80
2022/02/28 01:02:22;;;;;;;8.73;5.67;;;4.80;35.80;;;;;;2614154;51;20431;-78
2022/02/28 01:04:49;;;;;;;7.80;6.20;;;4.60;40.70;;;;;;2614117;54;20143;-78
2022/02/28 01:07:17;;;;;;;7.60;5.57;;;4.40;42.40;;;;;;2614494;39;20812;-78
2022/02/28 01:09:43;;;;;;;6.40;5.80;;;4.30;49.10;;;;;;2614432;47;20475;-78
2022/02/28 01:12:09;;;;;;;6.33;5.17;;;4.30;42.50;;;;;;2613911;47;21076;-78
2022/02/28 01:14:36;;;;;;;6.70;6.10;;;4.40;45.80;;;;;;2613476;47;20427;-78
2022/02/28 01:17:02;;;;;;;7.87;5.40;;;4.50;35.20;;;;;;2615380;39;20827;-77
2022/02/28 01:19:29;;;;;;;9.13;5.70;;;4.80;28.20;;;;;;2613689;51;20439;-77
2022/02/28 01:21:55;;;;;;;6.37;5.77;;;4.90;26.30;;;;;;2614431;47;20569;-78
2022/02/28 01:24:22;;;;;;;6.97;5.60;;;4.90;26.40;;;;;;2614305;54;20487;-78
2022/02/28 01:26:48;;;;;;;6.87;5.43;;;4.90;28.60;;;;;;2613677;47;20170;-78
2022/02/28 01:29:15;;;;;;;6.90;6.20;;;4.90;28.20;;;;;;2614123;47;20519;-79
2022/02/28 01:31:41;;;;;;;6.67;5.67;;;4.90;24.80;;;;;;2614915;47;20449;-78
2022/02/28 01:34:07;;;;;;;8.73;5.90;;;4.80;26.60;;;;;;2613136;54;20415;-78
2022/02/28 01:36:33;;;;;;;6.87;6.07;;;4.90;25.50;;;;;;2614607;47;20407;-77
2022/02/28 01:39:00;;;;;;;6.70;6.00;;;4.90;25.10;;;;;;2615657;39;20824;-76
2022/02/28 01:41:26;;;;;;;7.97;6.37;;;4.90;23.90;;;;;;2614470;54;20495;-76
2022/02/28 01:43:52;;;;;;;7.80;5.57;;;5.00;24.20;;;;;;2614776;47;20943;-77
2022/02/28 01:46:18;;;;;;;6.90;6.13;;;4.90;22.90;;;;;;2614844;47;20527;-76
2022/02/28 01:48:46;;;;;;;6.07;5.40;;;5.10;22.00;;;;;;2614871;47;20431;-76
2022/02/28 01:51:12;;;;;;;6.50;5.60;;;5.00;23.10;;;;;;2614744;47;20435;-78
2022/02/28 01:53:38;;;;;;;6.20;5.60;;;5.00;24.40;;;;;;2615367;53;20427;-77
2022/02/28 01:56:04;;;;;;;11.43;6.90;;;4.90;26.00;;;;;;2615959;47;20166;-78
2022/02/28 01:58:38;;;;;;;12.80;6.30;;;4.80;28.80;;;;;;2615402;47;20170;-77
2022/02/28 02:01:06;;;;;;;6.93;6.30;;;4.60;29.20;;;;;;2615844;51;21105;-82
2022/02/28 02:03:55;;;;;;;8.83;6.43;;;4.50;31.80;;;;;;2616371;47;20521;-81
2022/02/28 02:06:22;;;;;;;10.67;6.70;;;4.50;35.00;;;;;;2615502;54;20396;-80
2022/02/28 02:08:49;;;;;;;9.00;6.13;;;4.40;33.50;;;;;;2615954;47;20408;-82
2022/02/28 02:11:17;;;;;;;8.03;6.20;;;4.40;35.80;;;;;;2616092;46;20434;-80
2022/02/28 02:13:44;;;;;;;6.40;5.80;;;4.30;40.40;;;;;;2616948;46;20435;-81
2022/02/28 02:16:10;;;;;;;6.77;6.07;;;4.30;38.60;;;;;;2615535;39;20494;-80
2022/02/28 02:18:36;;;;;;;6.67;6.07;;;4.20;41.30;;;;;;2615518;54;20403;-81
2022/02/28 02:21:02;;;;;;;7.40;6.70;;;4.30;43.20;;;;;;2616645;31;20869;-80
2022/02/28 02:23:28;;;;;;;7.93;6.67;;;4.20;45.70;;;;;;2616116;54;20756;-82
2022/02/28 02:25:57;;;;;;;7.20;5.70;;;4.20;49.50;;;;;;2615467;47;20415;-81
2022/02/28 02:28:26;;;;;;;7.00;6.30;;;3.90;52.80;;;;;;2616246;51;20976;-81
2022/02/28 02:30:55;;;;;;;7.67;6.03;;;3.90;52.50;;;;;;2617035;54;20419;-81
2022/02/28 02:33:23;;;;;;;5.73;5.13;;;3.80;52.80;;;;;;2616801;47;20513;-80
2022/02/28 02:35:57;;;;;;;9.33;6.80;;;3.70;60.00;;;;;;2617699;39;20648;-81
2022/02/28 02:38:25;;;;;;;7.83;5.90;;;3.60;62.50;;;;;;2617368;47;20533;-82
2022/02/28 02:40:52;;;;;;;13.37;7.70;;;3.60;66.80;;;;;;2615865;47;21003;-82
2022/02/28 02:43:20;;;;;;;7.50;6.20;;;3.60;65.20;;;;;;2617054;39;20823;-82
2022/02/28 02:45:47;;;;;;;6.50;5.50;;;3.40;68.50;;;;;;2616489;54;20431;-83
2022/02/28 02:48:20;;;;;;;8.07;6.10;;;3.20;74.10;;;;;;2617525;39;20884;-83
2022/02/28 02:50:56;;;;;;;8.33;5.83;;;3.20;76.70;;;;;;2616372;47;20395;-82
2022/02/28 02:53:22;;;;;;;8.87;6.30;;;3.10;75.90;;;;;;2616340;47;20435;-81
2022/02/28 02:55:49;;;;;;;10.00;6.47;;;3.00;78.50;;;;;;2616073;47;20998;-82
2022/02/28 02:58:15;;;;;;;9.57;6.30;;;3.10;80.10;;;;;;2616785;54;20431;-82
2022/02/28 03:00:45;;;;;;;6.83;6.10;;;3.10;88.80;;;;;;2616392;47;20426;-81
2022/02/28 03:03:11;;;;;;;9.40;5.43;;;2.90;89.30;;;;;;2617031;54;20395;-83
2022/02/28 03:05:38;;;;;;;6.53;5.73;;;2.90;92.50;;;;;;2616003;47;20431;-82
2022/02/28 03:08:04;;;;;;;7.73;5.70;;;2.80;93.50;;;;;;2616392;51;20515;-81
2022/02/28 03:10:30;;;;;;;6.90;6.27;;;2.80;92.10;;;;;;2616736;47;20534;-82
2022/02/28 03:12:59;;;;;;;7.30;5.70;;;2.70;95.10;;;;;;2616184;47;20420;-81
2022/02/28 03:15:25;;;;;;;5.93;5.30;;;2.70;97.10;;;;;;2615637;47;20431;-83
2022/02/28 03:17:54;;;;;;;10.13;5.27;;;2.50;99.90;;;;;;2615806;51;20435;-83
2022/02/28 03:20:20;;;;;;;13.27;5.80;;;2.50;97.50;;;;;;2617728;31;20813;-80
2022/02/28 03:22:46;;;;;;;6.20;5.60;;;2.40;99.10;;;;;;2615754;47;20438;-82
2022/02/28 03:25:15;;;;;;;12.37;6.03;;;;;;;;;;2615103;47;20454;-82
2022/02/28 03:27:46;;;;;;;7.90;5.67;;;2.10;99.90;;;;;;2614293;47;21216;-81
2022/02/28 03:30:12;;;;;;;9.33;6.60;;;2.20;99.90;;;;;;2616600;51;20398;-82
2022/02/28 03:32:39;;;;;;;8.57;6.43;;;2.40;99.90;;;;;;2616261;39;20811;-82
2022/02/28 03:35:08;;;;;;;8.23;5.30;;;2.40;99.90;;;;;;2615776;54;20435;-81
2022/02/28 03:37:34;;;;;;;7.20;6.47;;;2.30;99.90;;;;;;2616707;51;20403;-82
2022/02/28 03:40:03;;;;;;;6.87;6.17;;;2.20;99.90;;;;;;2617377;54;20403;-82
2022/02/28 03:42:30;;;;;;;10.37;6.57;;;2.20;99.90;;;;;;2616365;47;20466;-82
2022/02/28 03:44:56;;;;;;;8.47;5.90;;;1.80;99.90;;;;;;2617247;54;20415;-82
2022/02/28 03:47:22;;;;;;;7.07;5.97;;;2.00;99.90;;;;;;2615942;47;20436;-82
2022/02/28 03:50:06;;;;;;;8.57;6.33;;;1.90;99.90;;;;;;2616820;54;20423;-82
2022/02/28 03:52:33;;;;;;;12.10;6.63;;;1.80;99.90;;;;;;2618792;47;20446;-81
2022/02/28 03:55:11;;;;;;;8.30;6.20;;;1.80;99.90;;;;;;2617724;39;20725;-82
2022/02/28 03:57:38;;;;;;;7.20;5.30;;;1.70;99.90;;;;;;2617615;47;20423;-83
2022/02/28 04:00:06;;;;;;;9.97;6.40;;;1.60;99.90;;;;;;2617130;50;20446;-80
2022/02/28 04:02:39;;;;;;;10.57;6.20;;;1.60;99.90;;;;;;2617424;46;20454;-83
2022/02/28 04:05:06;;;;;;;10.97;6.97;;;1.60;99.90;;;;;;2618384;47;20490;-82
2022/02/28 04:07:33;;;;;;;10.50;7.10;;;1.50;99.90;;;;;;2617785;39;20807;-82
2022/02/28 04:09:59;;;;;;;9.40;6.87;;;1.60;99.90;;;;;;2617258;47;20452;-82
2022/02/28 04:12:26;;;;;;;7.93;5.90;;;2.10;99.90;;;;;;2615524;54;20427;-82
2022/02/28 04:14:52;;;;;;;9.13;7.37;;;1.50;99.90;;;;;;2617196;47;20415;-81
2022/02/28 04:17:21;;;;;;;7.50;5.93;;;;;;;;;;2617972;54;20499;-83
2022/02/28 04:20:06;;;;;;;8.47;6.20;;;1.50;99.90;;;;;;2615790;39;20948;-81
2022/02/28 04:22:33;;;;;;;6.43;5.37;;;;;;;;;;2616473;47;20416;-82
2022/02/28 04:25:01;;;;;;;8.00;4.97;;;1.30;99.90;;;;;;2617303;54;20400;-83
2022/02/28 04:27:27;;;;;;;8.40;6.53;;;1.20;99.90;;;;;;2616908;54;20415;-83
2022/02/28 04:29:54;;;;;;;10.07;6.80;;;1.20;99.90;;;;;;2616010;47;21180;-82
2022/02/28 04:32:21;;;;;;;10.23;6.17;;;1.30;99.90;;;;;;2616351;52;20424;-80
2022/02/28 04:34:59;;;;;;;7.73;5.50;;;;;;;;;;2617287;47;20407;-82
2022/02/28 04:37:28;;;;;;;10.70;7.40;;;1.20;99.90;;;;;;2615784;54;20501;-82
2022/02/28 04:39:56;;;;;;;7.90;6.40;;;1.50;99.90;;;;;;2617679;54;20408;-82
2022/02/28 04:42:22;;;;;;;7.37;5.67;;;1.10;99.90;;;;;;2615744;39;20907;-84
2022/02/28 04:44:50;;;;;;;10.47;7.27;;;1.00;99.90;;;;;;2618600;47;20402;-83
2022/02/28 04:47:16;;;;;;;7.80;6.00;;;0.90;99.90;;;;;;2617948;47;20483;-82
2022/02/28 04:50:03;;;;;;;10.23;6.67;;;0.90;99.90;;;;;;2617854;47;20411;-82
2022/02/28 04:52:30;;;;;;;7.07;5.63;;;0.80;99.90;;;;;;2617871;54;20399;-82
2022/02/28 04:54:56;;;;;;;11.63;7.60;;;0.70;99.90;;;;;;2618001;47;20438;-83
2022/02/28 04:57:23;;;;;;;12.30;7.00;;;0.50;99.90;;;;;;2617976;47;20458;-82
2022/02/28 04:59:51;;;;;;;6.77;5.60;;;0.50;99.90;;;;;;2618064;54;20426;-81
2022/02/28 05:02:23;;;;;;;8.10;5.97;;;0.50;99.90;;;;;;2618439;54;20395;-83
2022/02/28 05:04:54;;;;;;;12.57;7.43;;;0.20;99.90;;;;;;2619122;50;20442;-80
2022/02/28 05:07:20;;;;;;;8.40;6.63;;;0.30;99.90;;;;;;2616875;47;20454;-81
2022/02/28 05:09:47;;;;;;;8.30;5.30;;;;;;;;;;2619844;54;20423;-84
2022/02/28 05:12:13;;;;;;;10.40;7.20;;;0.20;99.90;;;;;;2615851;47;20165;-83
2022/02/28 05:14:38;;;;;;;11.30;7.53;;;0.20;99.90;;;;;;2617833;47;20412;-81
2022/02/28 05:17:06;;;;;;;11.30;7.20;;;0.20;99.90;;;;;;2617522;47;20178;-82
2022/02/28 05:19:34;;;;;;;13.87;7.63;;;0.10;99.90;;;;;;2615044;54;20422;-82
2022/02/28 05:22:03;;;;;;;10.10;7.20;;;0.20;99.90;;;;;;2617224;39;20982;-82
2022/02/28 05:24:34;;;;;;;9.90;6.60;;;0.30;99.90;;;;;;2615955;54;21138;-82
2022/02/28 05:27:01;;;;;;;9.57;6.83;;;0.30;99.90;;;;;;2617656;54;20428;-80
2022/02/28 05:29:27;;;;;;;11.00;7.30;;;0.30;99.90;;;;;;2617000;47;20510;-81
2022/02/28 05:31:56;;;;;;;9.07;6.40;;;0.20;99.90;;;;;;2618124;51;20486;-83
2022/02/28 05:34:45;;;;;;;12.53;6.73;;;0.10;99.90;;;;;;2615902;54;20427;-83
2022/02/28 05:37:12;;;;;;;9.63;6.43;;;0.10;99.90;;;;;;2618543;54;20435;-85
2022/02/28 05:39:51;;;;;;;9.90;7.03;;;0.10;99.90;;;;;;2619138;48;20464;-83
2022/02/28 05:42:21;;;;;;;12.60;7.37;;;-0.10;99.90;;;;;;2618641;47;20459;-82
2022/02/28 05:44:51;;;;;;;7.93;6.33;;;-0.10;99.90;;;;;;2619475;47;20554;-84
2022/02/28 05:47:42;;;;;;;8.57;7.63;;;-0.10;99.90;;;;;;2619044;54;20431;-82
2022/02/28 05:50:11;;;;;;;12.93;7.33;;;-0.10;99.90;;;;;;2617250;47;20411;-82
2022/02/28 05:52:37;;;;;;;11.30;8.07;;;-0.10;99.90;;;;;;2617055;54;20423;-82
2022/02/28 05:55:04;;;;;;;10.60;7.30;;;-0.10;99.90;;;;;;2618799;54;20410;-81
2022/02/28 05:57:35;;;;;;;11.33;8.00;;;-0.20;99.90;;;;;;2617764;54;20395;-82
2022/02/28 06:00:03;;;;;;;10.97;7.50;;;-0.10;99.90;;;;;;2618187;54;20980;-84
2022/02/28 06:02:38;;;;;;;10.93;7.63;;;-0.20;99.90;;;;;;2615542;54;20961;-82
2022/02/28 06:05:04;;;;;;;11.50;7.70;;;-0.20;99.90;;;;;;2617883;47;20412;-82
2022/02/28 06:07:31;;;;;;;14.10;8.27;;;-0.30;99.90;;;;;;2618392;47;20411;-83
2022/02/28 06:09:57;;;;;;;9.67;7.33;;;-0.30;99.90;;;;;;2619220;47;21006;-83
2022/02/28 06:12:23;;;;;;;14.30;9.07;;;-0.30;99.90;;;;;;2618778;47;20434;-82
2022/02/28 06:14:50;;;;;;;18.83;8.90;;;-0.30;99.90;;;;;;2618766;54;20382;-81
2022/02/28 06:17:16;;;;;;;12.93;9.00;;;-0.40;99.90;;;;;;2619058;54;20154;-84
2022/02/28 06:19:42;;;;;;;11.83;8.63;;;-0.40;99.90;;;;;;2617543;54;20394;-82
2022/02/28 06:22:08;;;;;;;12.10;8.27;;;-0.40;99.90;;;;;;2617822;39;20919;-84
2022/02/28 06:24:34;;;;;;;11.17;8.50;;;-0.20;99.90;;;;;;2618828;54;20489;-83
2022/02/28 06:27:00;;;;;;;11.87;8.93;;;-0.40;99.90;;;;;;2620453;47;20408;-82
2022/02/28 06:29:26;;;;;;;12.93;8.07;;;-0.40;99.90;;;;;;2620031;47;20687;-84
2022/02/28 06:31:52;;;;;;;19.57;8.37;;;-0.50;99.90;;;;;;2618639;54;20150;-82
2022/02/28 06:34:18;;;;;;;16.20;9.30;;;-0.50;99.90;;;;;;2617044;39;20839;-81
2022/02/28 06:36:44;;;;;;;11.43;7.90;;;-0.40;99.90;;;;;;2619015;54;20415;-83
2022/02/28 06:39:10;;;;;;;14.73;9.90;;;-0.30;99.90;;;;;;2615446;54;20459;-82
2022/02/28 06:41:37;;;;;;;14.43;10.10;;;-0.20;99.90;;;;;;2636040;36;20451;-83
2022/02/28 06:44:03;;;;;;;15.00;9.57;;;-0.20;99.90;;;;;;2617701;47;20441;-83
2022/02/28 06:46:29;;;;;;;15.30;9.07;;;-0.10;99.90;;;;;;2614953;47;20404;-81
2022/02/28 06:48:55;;;;;;;14.23;9.30;;;-0.20;99.90;;;;;;2632923;36;20506;-82
2022/02/28 06:51:20;;;;;;;15.70;8.50;;;-0.10;99.90;;;;;;2614939;47;20416;-83
2022/02/28 06:53:47;;;;;;;15.03;9.00;;;-0.10;99.90;;;;;;2618316;54;20151;-82
2022/02/28 06:56:13;;;;;;;12.33;8.63;;;-0.20;99.90;;;;;;2634683;36;20475;-82
2022/02/28 06:58:39;;;;;;;18.20;10.07;;;-0.10;99.90;;;;;;2618151;47;20398;-85
2022/02/28 07:01:06;;;;;;;17.47;10.10;;;0.00;99.90;;;;;;2614801;47;20263;-82
2022/02/28 07:03:52;;;;;;;14.53;10.87;;;-0.10;99.90;;;;;;2616587;54;20437;-80
2022/02/28 07:06:22;;;;;;;16.30;10.20;;;0.10;99.90;;;;;;2617231;54;20932;-82
2022/02/28 07:08:50;;;;;;;14.13;11.07;;;0.10;99.90;;;;;;2616107;51;20161;-83
2022/02/28 07:11:18;;;;;;;13.47;9.53;;;0.30;99.90;;;;;;2617080;54;20450;-83
2022/02/28 07:13:44;;;;;;;17.93;12.33;;;;;;;;;;2616245;54;20415;-85
2022/02/28 07:16:10;;;;;;;19.53;12.47;;;0.50;99.90;;;;;;2614477;47;20410;-83
2022/02/28 07:18:43;;;;;;;15.00;9.27;;;;;;;;;;2615543;47;20499;-83
2022/02/28 07:21:10;;;;;;;17.87;12.27;;;0.70;99.90;;;;;;2614947;46;20428;-84
2022/02/28 07:23:37;;;;;;;22.37;10.70;;;;;;;;;;2617700;54;20418;-83
2022/02/28 07:26:05;;;;;;;18.67;9.80;;;;;;;;;;2614871;54;20408;-83
2022/02/28 07:28:31;;;;;;;20.10;11.13;;;;;;;;;;2615259;54;20439;-85
2022/02/28 07:30:57;;;;;;;19.60;9.30;;;;;;;;;;2614603;47;20454;-81
2022/02/28 07:33:25;;;;;;;13.20;10.10;;;;;;;;;;2616427;46;20439;-83
2022/02/28 07:35:50;;;;;;;15.53;10.43;;;6.30;99.90;;;;;;2617116;54;20951;-83
2022/02/28 07:38:17;;;;;;;14.30;8.43;;;;;;;;;;2616171;47;20443;-84
2022/02/28 07:40:43;;;;;;;14.23;10.00;;;7.70;94.80;;;;;;2616357;47;20470;-84
2022/02/28 07:43:08;;;;;;;12.90;10.40;;;8.10;48.50;;;;;;2617949;53;20439;-84
2022/02/28 07:45:34;;;;;;;14.80;10.77;;;9.30;18.00;;;;;;2616444;46;20412;-80
2022/02/28 07:48:00;;;;;;;15.37;9.27;;;;;;;;;;2614315;47;20420;-83
2022/02/28 07:50:26;;;;;;;15.00;10.80;;;;;;;;;;2615183;54;20664;-84
2022/02/28 07:53:16;;;;;;;12.83;10.20;;;10.30;11.10;;;;;;2613839;54;20408;-83
2022/02/28 07:55:41;;;;;;;11.53;10.40;;;10.40;13.10;;;;;;2614834;54;20419;-83
2022/02/28 07:58:08;;;;;;;12.87;10.40;;;;;;;;;;2615625;39;21066;-84
2022/02/28 08:00:34;;;;;;;10.90;9.80;;;;;;;;;;2614421;54;20150;-83
2022/02/28 08:03:00;;;;;;;10.57;8.70;;;;;;;;;;2613610;49;20462;-81
2022/02/28 08:05:26;;;;;;;10.50;8.97;;;10.10;6.00;;;;;;2613181;54;20431;-84
2022/02/28 08:07:53;;;;;;;17.13;8.80;;;9.80;3.40;;;;;;2615004;39;20897;-83
2022/02/28 08:10:19;;;;;;;10.30;9.20;;;;;;;;;;2614783;39;20934;-83
2022/02/28 08:12:46;;;;;;;14.50;10.57;;;10.30;1.00;;;;;;2613285;47;20394;-83
2022/02/28 08:15:12;;;;;;;15.60;10.70;;;10.10;1.00;;;;;;2613671;54;20477;-82
2022/02/28 08:17:38;;;;;;;12.27;9.50;;;9.90;1.00;;;;;;2614379;54;20413;-82
2022/02/28 08:20:04;;;;;;;11.10;9.10;;;10.50;1.00;;;;;;2613948;54;21044;-82
2022/02/28 08:22:31;;;;;;;9.17;8.27;;;10.40;1.00;;;;;;2616299;47;20957;-83
2022/02/28 08:24:58;;;;;;;11.30;8.70;;;10.30;1.00;;;;;;2616296;54;20429;-83
2022/02/28 08:27:25;;;;;;;9.90;8.90;;;10.60;1.00;;;;;;2615976;54;20461;-84
2022/02/28 08:29:51;;;;;;;9.47;8.57;;;10.80;1.00;;;;;;2618177;47;20411;-80
2022/02/28 08:32:18;;;;;;;11.30;9.20;;;11.00;1.00;;;;;;2622542;54;20399;-82
2022/02/28 08:34:43;;;;;;;10.97;9.27;;;11.30;1.00;;;;;;2622474;48;20494;-81
2022/02/28 08:37:09;;;;;;;10.87;9.77;;;11.10;1.00;;;;;;2622457;47;20454;-79
2022/02/28 08:39:37;;;;;;;9.73;8.73;;;11.20;1.00;;;;;;2621948;51;20164;-82
2022/02/28 08:42:04;;;;;;;11.67;10.27;;;11.30;1.00;;;;;;2622113;54;20249;-81
2022/02/28 08:44:30;;;;;;;17.10;9.63;;;11.10;1.00;;;;;;2620845;47;20429;-83
2022/02/28 08:46:57;;;;;;;10.33;9.33;;;11.30;1.00;;;;;;2617039;47;20425;-81
2022/02/28 08:49:23;;;;;;;9.97;8.37;;;11.20;1.00;;;;;;2622312;39;20945;-82
2022/02/28 08:51:50;;;;;;;13.87;9.20;;;11.10;1.00;;;;;;2622476;54;20434;-80
2022/02/28 08:54:16;;;;;;;13.90;9.50;;;11.00;1.00;;;;;;2620745;39;20479;-79
2022/02/28 08:56:42;;;;;;;10.10;9.17;;;10.90;1.00;;;;;;2619905;51;20432;-79
2022/02/28 08:59:08;;;;;;;11.70;9.13;;;11.00;1.00;;;;;;2620825;54;20195;-80
2022/02/28 09:01:33;;;;;;;11.73;9.83;;;10.70;1.00;;;;;;2620439;54;21027;-79
2022/02/28 09:03:59;;;;;;;9.67;8.57;;;10.80;1.00;;;;;;2617662;54;20148;-80
2022/02/28 09:06:26;;;;;;;8.83;8.00;;;10.80;1.00;;;;;;2617021;54;20519;-80
2022/02/28 09:08:53;;;;;;;10.43;9.30;;;11.00;1.00;;;;;;2616125;54;20158;-81
2022/02/28 09:11:22;;;;;;;10.10;9.20;;;12.00;1.00;;;;;;2615873;47;20564;-80
2022/02/28 09:13:49;;;;;;;10.57;9.53;;;11.70;1.00;;;;;;2615353;54;20409;-80
2022/02/28 09:16:15;;;;;;;9.80;9.00;;;11.90;1.00;;;;;;2615909;39;20827;-81
2022/02/28 09:18:42;;;;;;;10.33;8.70;;;12.00;1.00;;;;;;2616653;47;20431;-80
2022/02/28 09:21:09;;;;;;;8.80;7.90;;;;;;;;;;2615337;54;20986;-81
2022/02/28 09:23:35;;;;;;;9.43;8.43;;;12.10;1.00;;;;;;2614249;47;20525;-81
2022/02/28 09:26:04;;;;;;;10.00;8.63;;;12.10;1.00;;;;;;2614336;46;20427;-80
2022/02/28 09:28:34;;;;;;;11.87;9.10;;;12.70;1.00;;;;;;2615238;54;20395;-81
2022/02/28 09:31:01;;;;;;;12.20;8.53;;;;;;;;;;2615038;39;20805;-81
2022/02/28 09:33:28;;;;;;;9.30;8.40;;;;;;;;;;2613525;47;20415;-81
2022/02/28 09:35:56;;;;;;;9.40;8.40;;;;;;;;;;2614497;47;20414;-80
2022/02/28 09:38:22;;;;;;;10.10;9.13;;;13.10;1.00;;;;;;2614674;39;20847;-80
2022/02/28 09:40:50;;;;;;;11.20;9.50;;;;;;;;;;2614021;54;20517;-80
2022/02/28 09:43:36;;;;;;;10.47;9.40;;;12.60;1.00;;;;;;2614201;54;20196;-80
2022/02/28 09:46:21;;;;;;;7.93;7.23;;;;;;;;;;2616100;54;20483;-80
2022/02/28 09:49:06;;;;;;;13.13;9.30;;;;;;;;;;2614599;54;20464;-79
2022/02/28 09:51:52;;;;;;;8.70;7.90;;;;;;;;;;2615409;54;20429;-80
2022/02/28 09:54:38;;;;;;;11.90;8.13;;;;;;;;;;2615255;39;20780;-79
2022/02/28 09:57:47;;;;;;;10.43;8.50;;;;;;;;;;2612757;46;20406;-81
2022/02/28 10:00:24;;;;;;;11.67;10.57;;;12.90;1.00;;;;;;2612027;54;21006;-80
2022/02/28 10:02:57;;;;;;;10.27;8.47;;;13.60;8.90;;;;;;2612718;51;20418;-80
2022/02/28 10:05:26;;;;;;;10.77;9.77;;;13.20;1.00;;;;;;2614871;47;20453;-79
2022/02/28 10:07:59;;;;;;;9.10;8.40;;;13.30;1.00;;;;;;2613056;46;20981;-79
2022/02/28 10:10:28;;;;;;;10.40;9.40;;;13.00;1.00;;;;;;2617643;47;20395;-80
2022/02/28 10:12:54;;;;;;;10.50;9.00;;;12.80;1.00;;;;;;2612772;39;20812;-80
2022/02/28 10:15:48;;;;;;;8.67;7.90;;;13.00;1.00;;;;;;2614998;54;20471;-80
2022/02/28 10:18:43;;;;;;;10.00;9.10;;;13.20;1.00;;;;;;2615732;54;21024;-80
2022/02/28 10:21:09;;;;;;;9.60;8.60;;;13.30;1.00;;;;;;2614823;47;20427;-80
2022/02/28 10:23:48;;;;;;;10.83;9.43;;;13.00;1.00;;;;;;2613722;54;20439;-80
2022/02/28 10:26:49;;;;;;;13.07;11.77;;;14.00;1.00;;;;;;2613896;47;20446;-81
2022/02/28 10:29:42;;;;;;;8.87;8.10;;;;;;;;;;2614012;47;20415;-81
2022/02/28 10:32:50;;;;;;;10.40;9.50;;;14.10;1.00;;;;;;2615164;54;20427;-79
2022/02/28 10:38:57;;;;;;;10.93;9.90;;;13.40;1.00;;;;;;2615833;46;20408;-80
2022/02/28 10:41:36;;;;;;;10.97;10.00;;;13.90;1.00;;;;;;2615904;46;20533;-81
2022/02/28 10:44:02;;;;;;;9.80;8.93;;;13.90;1.00;;;;;;2614967;47;20549;-80
2022/02/28 10:46:33;;;;;;;9.80;8.90;;;13.50;1.00;;;;;;2615959;47;20415;-80
2022/02/28 10:49:15;;;;;;;10.23;9.23;;;13.60;1.00;;;;;;2616821;39;20594;-80
2022/02/28 10:51:53;;;;;;;10.10;9.10;;;13.50;1.00;;;;;;2616756;47;20423;-80
2022/02/28 10:54:25;;;;;;;12.83;11.53;;;14.10;1.00;;;;;;2617149;47;20427;-79
2022/02/28 10:57:03;;;;;;;10.47;9.57;;;13.70;1.00;;;;;;2618307;54;20997;-80
2022/02/28 10:59:45;;;;;;;10.47;9.50;;;13.90;1.00;;;;;;2617965;39;20902;-80
2022/02/28 11:02:27;;;;;;;17.23;9.70;;;13.90;1.00;;;;;;2618925;47;20419;-79
2022/02/28 11:05:09;;;;;;;10.77;9.67;;;14.50;1.00;;;;;;2617499;54;20813;-79
2022/02/28 11:07:43;;;;;;;11.57;10.67;;;14.90;1.00;;;;;;2618541;54;20427;-80
2022/02/28 11:10:11;;;;;;;10.90;9.80;;;14.70;1.00;;;;;;2618872;47;20412;-80
2022/02/28 11:12:39;;;;;;;10.50;9.80;;;13.80;1.00;;;;;;2619599;39;20829;-80
2022/02/28 11:15:13;;;;;;;11.83;10.83;;;14.20;1.00;;;;;;2615840;54;20430;-80
2022/02/28 11:17:39;;;;;;;10.83;9.73;;;14.10;1.00;;;;;;2618302;39;21705;-81
2022/02/28 11:20:11;;;;;;;12.13;11.03;;;14.10;1.00;;;;;;2618536;54;20515;-78
2022/02/28 11:22:41;;;;;;;12.60;11.43;;;13.80;1.00;;;;;;2617942;46;20483;-81
2022/02/28 11:25:15;;;;;;;11.03;10.00;;;14.20;1.00;;;;;;2618153;54;20404;-80
2022/02/28 11:27:43;;;;;;;11.27;10.40;;;14.20;1.00;;;;;;2618085;54;20499;-81
2022/02/28 11:30:29;;;;;;;10.67;9.67;;;13.40;1.00;;;;;;2619100;47;22333;-79
2022/02/28 11:33:05;;;;;;;10.93;9.87;;;13.80;1.00;;;;;;2618480;47;20510;-80
2022/02/28 11:35:55;;;;;;;10.57;9.67;;;14.00;1.00;;;;;;2619511;47;20491;-79
2022/02/28 11:38:24;;;;;;;10.33;9.43;;;14.20;1.00;;;;;;2618726;54;20423;-81
2022/02/28 11:40:54;;;;;;;11.10;10.30;;;14.70;1.00;;;;;;2617341;46;20424;-81
2022/02/28 11:43:25;;;;;;;12.00;10.80;;;15.40;1.00;;;;;;2618965;47;20451;-81
2022/02/28 11:46:11;;;;;;;11.67;10.80;;;15.10;1.00;;;;;;2617706;31;20870;-81
2022/02/28 11:48:46;;;;;;;11.90;10.90;;;15.20;1.00;;;;;;2618785;54;20408;-81
2022/02/28 11:51:31;;;;;;;11.97;10.97;;;15.40;1.00;;;;;;2619319;39;20807;-80
2022/02/28 11:54:05;;;;;;;11.60;10.60;;;14.90;1.00;;;;;;2617518;47;20421;-80
2022/02/28 11:56:31;;;;;;;11.37;10.37;;;;;;;;;;2619986;47;20964;-81
2022/02/28 11:59:18;;;;;;;11.73;10.67;;;14.80;1.00;;;;;;2617476;54;20447;-79
2022/02/28 12:02:09;;;;;;;11.60;10.70;;;15.60;1.00;;;;;;2617663;54;20414;-81
2022/02/28 12:04:41;;;;;;;12.90;11.80;;;15.80;1.00;;;;;;2617833;54;20407;-81
2022/02/28 12:07:14;;;;;;;11.73;10.67;;;15.80;1.00;;;;;;2616046;54;20431;-81
2022/02/28 12:09:43;;;;;;;11.70;10.70;;;15.60;1.00;;;;;;2618346;47;20423;-81
2022/02/28 12:12:18;;;;;;;10.97;10.07;;;15.80;1.00;;;;;;2618435;47;20419;-81
2022/02/28 12:14:56;;;;;;;12.23;11.23;;;15.60;1.00;;;;;;2616008;51;20554;-81
2022/02/28 12:17:31;;;;;;;9.93;9.13;;;;;;;;;;2618921;54;20423;-79
2022/02/28 12:20:22;;;;;;;11.93;10.87;;;14.80;1.00;;;;;;2617070;54;20438;-79
2022/02/28 12:25:39;;;;;;;11.67;10.63;;;15.20;1.00;;;;;;2620094;47;20545;-80
2022/02/28 12:28:24;;;;;;;12.13;11.07;;;14.80;1.00;;;;;;2619426;54;20403;-80
2022/02/28 12:30:54;;;;;;;12.60;11.50;;;14.70;1.00;;;;;;2620332;47;20455;-80
2022/02/28 12:33:44;;;;;;;12.43;11.43;;;15.00;1.00;;;;;;2619048;47;20531;-80
2022/02/28 12:36:18;;;;;;;12.63;11.63;;;15.00;1.00;;;;;;2618651;54;20398;-80
2022/02/28 12:38:55;;;;;;;12.73;11.60;;;14.70;1.00;;;;;;2617577;47;20968;-82
2022/02/28 12:41:28;;;;;;;11.47;10.67;;;15.20;1.00;;;;;;2618254;47;20419;-79
2022/02/28 12:43:56;;;;;;;9.97;9.17;;;15.30;1.00;;;;;;2618104;47;20992;-81
2022/02/28 12:46:30;;;;;;;11.30;10.40;;;15.40;1.00;;;;;;2617300;47;20404;-81
2022/02/28 12:48:56;;;;;;;11.60;10.80;;;15.40;1.00;;;;;;2617501;47;20436;-80
2022/02/28 12:51:26;;;;;;;12.87;11.70;;;15.70;1.00;;;;;;2618567;54;20407;-80
2022/02/28 12:54:21;;;;;;;11.90;10.80;;;16.20;1.00;;;;;;2618859;54;20395;-80
2022/02/28 12:56:52;;;;;;;13.03;11.83;;;16.20;1.00;;;;;;2636915;36;21038;-81
2022/02/28 12:59:18;;;;;;;11.43;10.33;;;15.70;1.00;;;;;;2618323;54;20530;-85
2022/02/28 13:01:44;;;;;;;12.03;10.93;;;16.00;1.00;;;;;;2619753;47;20523;-80
2022/02/28 13:04:11;;;;;;;12.43;11.50;;;16.30;1.00;;;;;;2618389;54;20443;-80
2022/02/28 13:06:40;;;;;;;10.57;9.70;;;16.70;1.00;;;;;;2619486;54;20507;-80
2022/02/28 13:09:09;;;;;;;10.63;9.80;;;17.10;1.00;;;;;;2615548;54;20423;-81
2022/02/28 13:11:48;;;;;;;11.33;10.43;;;16.80;1.00;;;;;;2619150;47;22926;-81
2022/02/28 13:14:20;;;;;;;12.13;11.03;;;16.00;1.00;;;;;;2620092;47;20976;-80
2022/02/28 13:16:50;;;;;;;12.40;11.10;;;15.70;1.00;;;;;;2619563;39;20794;-80
2022/02/28 13:19:26;;;;;;;11.97;10.87;;;16.70;1.00;;;;;;2618540;51;20424;-81